Time;durP1;ratioP1;P1;durP2;ratioP2;P2;SDS_P1;SDS_P2;PMS_P1;PMS_P2;Temp;Humidity;BMP_temperature;BMP_pressure;BME280_temperature;BME280_humidity;BME280_pressure;Samples;Min_cycle;Max_cycle;Signal;HPM_P1;HPM_P2
2023/07/22 00:04:03;;;;;;;;;;;;;;;20.14;54.75;99542.59;10329130;28;1169;-65
2023/07/22 00:08:59;;;;;;;;;;;;;;;20.14;54.61;99537.28;10326420;28;854;-65
2023/07/22 00:13:55;;;;;;;;;;;;;;;20.14;54.70;99545.22;10328382;28;865;-65
2023/07/22 00:18:51;;;;;;;;;;;;;;;20.13;54.72;99543.53;10327548;28;1914;-65
2023/07/22 00:23:47;;;;;;;;;;;;;;;20.13;54.59;99540.91;10327249;28;974;-65
2023/07/22 00:28:43;;;;;;;;;;;;;;;20.13;54.60;99548.84;10327800;28;852;-65
2023/07/22 00:33:39;;;;;;;;;;;;;;;20.11;54.68;99537.47;10326709;28;1299;-65
2023/07/22 00:38:35;;;;;;;;;;;;;;;20.11;54.59;99535.69;10326744;28;1914;-65
2023/07/22 00:43:31;;;;;;;;;;;;;;;20.11;54.65;99529.53;10326614;28;805;-65
2023/07/22 00:48:27;;;;;;;;;;;;;;;20.10;54.62;99530.50;10326435;28;781;-65
2023/07/22 00:53:23;;;;;;;;;;;;;;;20.10;54.58;99522.56;10326266;28;850;-65
2023/07/22 00:58:19;;;;;;;;;;;;;;;20.10;54.71;99530.50;10326199;28;1955;-65
2023/07/22 01:03:15;;;;;;;;;;;;;;;20.09;54.70;99526.13;10327166;28;853;-65
2023/07/22 01:08:11;;;;;;;;;;;;;;;20.08;54.80;99521.78;10325931;28;855;-65
2023/07/22 01:13:06;;;;;;;;;;;;;;;20.08;54.73;99514.69;10325796;28;817;-65
2023/07/22 01:18:02;;;;;;;;;;;;;;;20.07;54.73;99506.84;10325374;28;1956;-65
2023/07/22 01:22:58;;;;;;;;;;;;;;;20.06;54.71;99507.78;10326400;28;853;-65
2023/07/22 01:27:54;;;;;;;;;;;;;;;20.06;54.74;99502.47;10325491;28;755;-65
2023/07/22 01:32:50;;;;;;;;;;;;;;;20.05;54.55;99514.88;10324762;28;1243;-65
2023/07/22 01:37:46;;;;;;;;;;;;;;;20.05;54.63;99506.09;10325401;28;1909;-65
2023/07/22 01:42:42;;;;;;;;;;;;;;;20.05;54.61;99503.44;10325100;28;993;-65
2023/07/22 01:47:38;;;;;;;;;;;;;;;20.04;54.65;99501.72;10325678;28;819;-65
2023/07/22 01:52:34;;;;;;;;;;;;;;;20.02;54.60;99498.31;10325570;28;805;-65
2023/07/22 01:57:30;;;;;;;;;;;;;;;20.02;54.58;99496.53;10325406;28;1897;-65
2023/07/22 02:02:26;;;;;;;;;;;;;;;20.02;54.59;99496.53;10325389;28;813;-65
2023/07/22 02:07:22;;;;;;;;;;;;;;;20.02;54.63;99498.31;10324680;28;952;-65
2023/07/22 02:12:17;;;;;;;;;;;;;;;20.01;54.61;99500.09;10324790;28;848;-65
2023/07/22 02:17:13;;;;;;;;;;;;;;;20.00;54.79;99494.91;10324931;28;1951;-65
2023/07/22 02:22:09;;;;;;;;;;;;;;;20.00;54.69;99485.16;10324453;28;930;-65
2023/07/22 02:27:05;;;;;;;;;;;;;;;20.00;54.51;99486.97;10324375;28;877;-65
2023/07/22 02:32:01;;;;;;;;;;;;;;;19.98;54.61;99489.69;10330863;28;1446;-65
2023/07/22 02:36:57;;;;;;;;;;;;;;;19.98;54.75;99488.84;10332077;28;1913;-65
2023/07/22 02:41:53;;;;;;;;;;;;;;;19.98;54.56;99486.19;10331414;28;776;-65
2023/07/22 02:46:49;;;;;;;;;;;;;;;19.96;54.64;99488.91;10331940;28;852;-65
2023/07/22 02:51:45;;;;;;;;;;;;;;;19.96;54.57;99490.72;10331637;28;802;-65
2023/07/22 02:56:41;;;;;;;;;;;;;;;19.96;54.65;99493.34;10331324;28;1898;-65
2023/07/22 03:01:37;;;;;;;;;;;;;;;19.96;54.61;99490.72;10331073;28;942;-65
2023/07/22 03:06:33;;;;;;;;;;;;;;;19.95;54.66;99499.59;10330486;28;928;-65
2023/07/22 03:11:29;;;;;;;;;;;;;;;19.93;54.71;99505.81;10330364;28;936;-65
2023/07/22 03:16:25;;;;;;;;;;;;;;;19.92;54.66;99501.47;10330002;28;1897;-65
2023/07/22 03:21:21;;;;;;;;;;;;;;;19.92;54.60;99498.81;10329999;28;1022;-65
2023/07/22 03:26:17;;;;;;;;;;;;;;;19.91;54.58;99497.13;10329166;28;887;-65
2023/07/22 03:31:13;;;;;;;;;;;;;;;19.91;54.65;99505.06;10329110;28;1279;-65
2023/07/22 03:36:08;;;;;;;;;;;;;;;19.90;54.80;99498.06;10330014;28;1917;-65
2023/07/22 03:41:04;;;;;;;;;;;;;;;19.89;54.66;99499.00;10328483;28;928;-65
2023/07/22 03:46:00;;;;;;;;;;;;;;;19.88;54.55;99493.78;10329009;28;818;-65
2023/07/22 03:50:56;;;;;;;;;;;;;;;19.89;54.62;99498.16;10328749;28;929;-65
2023/07/22 03:55:52;;;;;;;;;;;;;;;19.88;54.61;99497.28;10329271;28;1889;-65
2023/07/22 04:00:48;;;;;;;;;;;;;;;19.87;54.75;99500.03;10329028;28;881;-65
2023/07/22 04:05:44;;;;;;;;;;;;;;;19.86;54.69;99501.81;10328131;28;893;-65
2023/07/22 04:10:39;;;;;;;;;;;;;;;19.86;54.77;99504.47;10327336;28;783;-65
2023/07/22 04:15:35;;;;;;;;;;;;;;;19.87;54.76;99502.66;10327905;28;1898;-64
2023/07/22 04:20:31;;;;;;;;;;;;;;;19.87;54.75;99503.53;10327496;28;1020;-65
2023/07/22 04:25:27;;;;;;;;;;;;;;;19.85;54.65;99500.09;10326805;28;888;-64
2023/07/22 04:30:24;;;;;;;;;;;;;;;19.86;54.77;99496.53;10326643;28;1283;-64
2023/07/22 04:35:21;;;;;;;;;;;;;;;19.89;54.33;99499.00;10326854;28;1979;-64
2023/07/22 04:40:18;;;;;;;;;;;;;;;19.95;54.39;99507.53;10326070;28;1115;-65
2023/07/22 04:45:14;;;;;;;;;;;;;;;19.97;54.26;99506.50;10326550;28;807;-65
2023/07/22 04:50:10;;;;;;;;;;;;;;;19.98;54.26;99512.66;10326856;28;980;-65
2023/07/22 04:55:08;;;;;;;;;;;;;;;20.02;54.16;99514.19;10325553;28;1906;-65
2023/07/22 05:00:04;;;;;;;;;;;;;;;20.03;54.25;99513.25;10326422;28;878;-65
2023/07/22 05:05:00;;;;;;;;;;;;;;;20.03;54.29;99515.88;10326026;28;790;-65
2023/07/22 05:09:56;;;;;;;;;;;;;;;20.02;54.55;99516.84;10325311;28;917;-65
2023/07/22 05:14:52;;;;;;;;;;;;;;;20.03;54.33;99521.19;10325703;28;2315;-64
2023/07/22 05:19:48;;;;;;;;;;;;;;;20.05;54.23;99524.59;10325531;28;951;-65
2023/07/22 05:24:44;;;;;;;;;;;;;;;20.06;54.27;99526.28;10324804;28;1101;-66
2023/07/22 05:29:40;;;;;;;;;;;;;;;20.04;54.28;99515.81;10324387;28;1112;-65
2023/07/22 05:34:36;;;;;;;;;;;;;;;20.02;54.54;99520.34;10324841;28;941;-65
2023/07/22 05:39:32;;;;;;;;;;;;;;;20.03;54.56;99518.53;10324729;28;1898;-65
2023/07/22 05:44:28;;;;;;;;;;;;;;;20.04;54.58;99522.88;10325164;28;754;-65
2023/07/22 05:49:24;;;;;;;;;;;;;;;20.03;54.44;99521.19;10324001;28;849;-65
2023/07/22 05:54:19;;;;;;;;;;;;;;;20.03;54.36;99519.38;10324847;28;823;-65
2023/07/22 05:59:15;;;;;;;;;;;;;;;20.03;54.57;99518.53;10324250;28;1894;-65
2023/07/22 06:04:11;;;;;;;;;;;;;;;20.02;54.39;99517.69;10325896;28;875;-65
2023/07/22 06:09:07;;;;;;;;;;;;;;;20.00;54.32;99516.91;10332902;28;790;-65
2023/07/22 06:14:03;;;;;;;;;;;;;;;20.00;54.27;99521.34;10332555;28;849;-65
2023/07/22 06:18:59;;;;;;;;;;;;;;;20.02;54.26;99517.69;10332338;28;1894;-65
2023/07/22 06:23:55;;;;;;;;;;;;;;;20.03;54.05;99521.19;10332126;28;936;-65
2023/07/22 06:28:51;;;;;;;;;;;;;;;20.03;54.03;99518.53;10332566;28;853;-65
2023/07/22 06:33:46;;;;;;;;;;;;;;;20.03;53.88;99521.19;10331012;28;1274;-65
2023/07/22 06:38:42;;;;;;;;;;;;;;;20.01;53.84;99523.91;10331486;28;1965;-65
2023/07/22 06:43:38;;;;;;;;;;;;;;;20.03;53.91;99523.81;10332008;28;853;-65
2023/07/22 06:48:34;;;;;;;;;;;;;;;20.05;54.13;99524.59;10331817;28;991;-65
2023/07/22 06:53:31;;;;;;;;;;;;;;;20.08;53.89;99527.06;10331680;28;793;-65
2023/07/22 06:58:27;;;;;;;;;;;;;;;20.10;53.45;99522.56;10330799;28;1956;-65
2023/07/22 07:03:23;;;;;;;;;;;;;;;20.11;53.91;99522.44;10330551;28;923;-65
2023/07/22 07:08:19;;;;;;;;;;;;;;;20.12;54.09;99525.94;10330983;28;829;-65
2023/07/22 07:13:15;;;;;;;;;;;;;;;20.13;53.70;99527.66;10330906;28;856;-65
2023/07/22 07:18:10;;;;;;;;;;;;;;;20.12;54.29;99520.66;10330212;28;1975;-65
2023/07/22 07:23:06;;;;;;;;;;;;;;;20.12;54.37;99525.94;10330767;28;857;-65
2023/07/22 07:28:02;;;;;;;;;;;;;;;20.21;54.03;99525.44;10329754;28;876;-65
2023/07/22 07:32:58;;;;;;;;;;;;;;;20.20;54.04;99523.75;10329854;28;1310;-65
2023/07/22 07:37:54;;;;;;;;;;;;;;;20.20;54.13;99525.50;10328705;28;1914;-65
2023/07/22 07:42:50;;;;;;;;;;;;;;;20.22;54.05;99523.63;10329111;28;888;-65
2023/07/22 07:47:46;;;;;;;;;;;;;;;20.23;54.21;99520.91;10328937;28;780;-64
2023/07/22 07:52:43;;;;;;;;;;;;;;;20.21;53.93;99525.44;10328039;28;912;-65
2023/07/22 07:57:39;;;;;;;;;;;;;;;20.21;54.16;99528.09;10329264;28;1897;-65
2023/07/22 08:02:35;;;;;;;;;;;;;;;20.20;54.07;99531.69;10329103;28;813;-65
2023/07/22 08:07:31;;;;;;;;;;;;;;;20.20;53.98;99531.69;10328320;28;877;-65
2023/07/22 08:12:27;;;;;;;;;;;;;;;20.21;53.80;99524.59;10328522;28;810;-65
2023/07/22 08:17:23;;;;;;;;;;;;;;;20.23;53.83;99528.00;10327881;28;1901;-65
2023/07/22 08:22:19;;;;;;;;;;;;;;;20.24;53.98;99535.00;10327453;28;801;-65
2023/07/22 08:27:14;;;;;;;;;;;;;;;20.24;53.74;99537.63;10326588;28;901;-65
2023/07/22 08:32:10;;;;;;;;;;;;;;;20.22;53.95;99536.88;10327990;28;1298;-65
2023/07/22 08:37:06;;;;;;;;;;;;;;;20.24;53.69;99532.34;10327567;28;1913;-65
2023/07/22 08:42:02;;;;;;;;;;;;;;;20.22;53.86;99527.13;10326738;28;952;-65
2023/07/22 08:46:58;;;;;;;;;;;;;;;20.23;53.82;99528.84;10327225;28;805;-65
2023/07/22 08:51:54;;;;;;;;;;;;;;;20.24;53.85;99524.41;10326421;28;810;-65
2023/07/22 08:56:50;;;;;;;;;;;;;;;20.23;53.69;99523.56;10326495;28;1898;-65
2023/07/22 09:01:46;;;;;;;;;;;;;;;20.24;53.70;99522.59;10326365;28;1015;-65
2023/07/22 09:06:42;;;;;;;;;;;;;;;20.27;53.73;99524.22;10326017;28;796;-65
2023/07/22 09:11:37;;;;;;;;;;;;;;;20.25;53.73;99519.03;10326498;28;826;-65
2023/07/22 09:16:33;;;;;;;;;;;;;;;20.24;53.74;99522.59;10326300;28;1960;-65
2023/07/22 09:21:29;;;;;;;;;;;;;;;20.24;53.64;99525.25;10325935;28;821;-65
2023/07/22 09:26:25;;;;;;;;;;;;;;;20.25;53.67;99520.81;10325399;28;798;-68
2023/07/22 09:31:21;;;;;;;;;;;;;;;20.23;53.62;99523.56;10325001;28;1345;-64
2023/07/22 09:36:17;;;;;;;;;;;;;;;20.25;53.49;99529.63;10325341;28;1973;-64
2023/07/22 09:41:13;;;;;;;;;;;;;;;20.23;53.45;99520.91;10337360;28;875;-64
2023/07/22 09:46:09;;;;;;;;;;;;;;;20.28;53.22;99525.94;10338744;28;770;-65
2023/07/22 09:51:06;;;;;;;;;;;;;;;20.28;53.05;99521.50;10338626;28;820;-64
2023/07/22 09:56:01;;;;;;;;;;;;;;;20.24;53.28;99527.91;10338396;28;1885;-65
2023/07/22 10:00:57;;;;;;;;;;;;;;;20.22;53.32;99521.84;10339272;28;909;-65
2023/07/22 10:05:53;;;;;;;;;;;;;;;20.21;53.33;99520.16;10339060;28;886;-65
2023/07/22 10:10:49;;;;;;;;;;;;;;;20.20;53.22;99526.38;10337736;28;904;-65
2023/07/22 10:15:45;;;;;;;;;;;;;;;20.21;53.23;99522.78;10339259;28;2319;-65
2023/07/22 10:20:41;;;;;;;;;;;;;;;20.19;53.04;99519.38;10338446;28;864;-65
2023/07/22 10:25:37;;;;;;;;;;;;;;;20.20;53.10;99521.09;10337922;28;857;-65
2023/07/22 10:30:32;;;;;;;;;;;;;;;20.22;52.87;99516.53;10335823;28;1152;-65
2023/07/22 10:35:29;;;;;;;;;;;;;;;20.24;53.11;99516.47;10336867;28;1980;-65
2023/07/22 10:40:24;;;;;;;;;;;;;;;20.22;52.95;99513.91;10337557;28;785;-64
2023/07/22 10:45:20;;;;;;;;;;;;;;;20.21;53.02;99508.72;10338238;28;814;-65
2023/07/22 10:50:16;;;;;;;;;;;;;;;20.20;53.02;99507.88;10334967;28;938;-65
2023/07/22 10:55:12;;;;;;;;;;;;;;;20.21;53.09;99501.63;10331295;28;1893;-65
2023/07/22 11:00:08;;;;;;;;;;;;;;;20.25;52.95;99502.28;10331217;28;883;-65
2023/07/22 11:05:06;;;;;;;;;;;;;;;20.26;52.95;99496.91;10330427;28;794;-65
2023/07/22 11:10:02;;;;;;;;;;;;;;;20.24;52.89;99482.06;10331434;28;896;-64
2023/07/22 11:14:58;;;;;;;;;;;;;;;20.24;52.95;99496.16;10330596;28;1949;-65
2023/07/22 11:19:54;;;;;;;;;;;;;;;20.20;52.97;99491.09;10329851;28;968;-65
2023/07/22 11:24:50;;;;;;;;;;;;;;;20.21;52.71;99475.16;10329488;28;770;-64
2023/07/22 11:29:45;;;;;;;;;;;;;;;20.22;52.43;99463.63;10329787;28;1368;-65
2023/07/22 11:34:41;;;;;;;;;;;;;;;20.24;52.70;99460.88;10330038;28;997;-66
2023/07/22 11:39:37;;;;;;;;;;;;;;;20.23;52.75;99454.75;10329046;28;1909;-65
2023/07/22 11:44:33;;;;;;;;;;;;;;;20.25;52.93;99460.81;10328876;28;960;-65
2023/07/22 11:49:29;;;;;;;;;;;;;;;20.25;52.92;99452.88;10329340;28;916;-65
2023/07/22 11:54:25;;;;;;;;;;;;;;;20.27;52.85;99456.25;10328916;28;854;-65
2023/07/22 11:59:21;;;;;;;;;;;;;;;20.28;52.79;99450.03;10327780;28;1898;-65
2023/07/22 12:04:16;;;;;;;;;;;;;;;20.27;52.87;99445.66;10326382;28;1024;-65
2023/07/22 12:09:12;;;;;;;;;;;;;;;20.29;52.78;99445.59;10328459;28;964;-65
2023/07/22 12:14:11;;;;;;;;;;;;;;;20.27;52.68;99440.38;10328287;28;936;-65
2023/07/22 12:19:07;;;;;;;;;;;;;;;20.31;52.61;99435.78;10326888;28;1894;-65
2023/07/22 12:24:04;;;;;;;;;;;;;;;20.30;52.43;99429.63;10327762;28;795;-66
2023/07/22 12:28:59;;;;;;;;;;;;;;;20.34;52.42;99439.09;10324749;28;1042;-65
2023/07/22 12:33:55;;;;;;;;;;;;;;;20.36;52.34;99439.00;10326865;28;1155;-65
2023/07/22 12:38:51;;;;;;;;;;;;;;;20.31;52.29;99426.03;10326620;28;1906;-65
2023/07/22 12:43:49;;;;;;;;;;;;;;;20.30;52.46;99419.06;10326493;28;959;-65
2023/07/22 12:48:45;;;;;;;;;;;;;;;20.30;52.30;99421.69;10326949;28;799;-65
2023/07/22 12:53:40;;;;;;;;;;;;;;;20.30;52.44;99416.41;10326123;28;876;-65
2023/07/22 12:58:36;;;;;;;;;;;;;;;20.29;52.52;99416.47;10325828;28;1889;-65
2023/07/22 13:03:32;;;;;;;;;;;;;;;20.30;52.39;99402.28;10326692;28;775;-65
2023/07/22 13:08:28;;;;;;;;;;;;;;;20.32;52.32;99401.25;10325917;28;960;-65
2023/07/22 13:13:24;;;;;;;;;;;;;;;20.31;52.31;99396.06;10325103;28;973;-65
2023/07/22 13:18:20;;;;;;;;;;;;;;;20.38;52.33;99392.09;10324851;28;1889;-65
2023/07/22 13:23:16;;;;;;;;;;;;;;;20.36;52.18;99392.22;10325398;28;786;-65
2023/07/22 13:28:11;;;;;;;;;;;;;;;20.39;52.04;99385.03;10325239;28;758;-65
2023/07/22 13:33:07;;;;;;;;;;;;;;;20.36;52.12;99392.22;10325641;28;1248;-65
2023/07/22 13:38:03;;;;;;;;;;;;;;;20.38;52.16;99385.97;10325075;28;1914;-65
2023/07/22 13:42:59;;;;;;;;;;;;;;;20.38;52.13;99372.72;10325631;28;856;-65
2023/07/22 13:47:55;;;;;;;;;;;;;;;20.35;52.28;99363.16;10324954;28;865;-66
2023/07/22 13:52:51;;;;;;;;;;;;;;;20.35;52.11;99363.16;10307523;28;710;-66
2023/07/22 13:57:47;;;;;;;;;;;;;;;20.38;52.11;99354.19;10324573;28;1903;-65
2023/07/22 14:02:43;;;;;;;;;;;;;;;20.40;52.22;99344.38;10325229;28;861;-65
2023/07/22 14:07:39;;;;;;;;;;;;;;;20.48;52.06;99342.09;10325112;28;805;-65
2023/07/22 14:12:35;;;;;;;;;;;;;;;20.46;52.14;99346.63;10324993;28;831;-65
2023/07/22 14:17:32;;;;;;;;;;;;;;;20.39;52.38;99359.41;10324833;28;1901;-65
2023/07/22 14:22:28;;;;;;;;;;;;;;;20.39;52.46;99340.88;10324232;28;837;-65
2023/07/22 14:27:24;;;;;;;;;;;;;;;20.46;52.18;99336.94;10329255;28;942;-65
2023/07/22 14:32:19;;;;;;;;;;;;;;;20.44;52.29;99330.03;10331674;28;1424;-65
2023/07/22 14:37:15;;;;;;;;;;;;;;;20.41;52.37;99325.75;10330871;28;1910;-65
2023/07/22 14:42:11;;;;;;;;;;;;;;;20.40;52.58;99318.75;10331439;28;900;-65
2023/07/22 14:47:07;;;;;;;;;;;;;;;20.54;52.03;99324.09;10331057;28;995;-65
2023/07/22 14:52:03;;;;;;;;;;;;;;;20.54;52.07;99321.44;10330934;28;766;-68
2023/07/22 14:56:59;;;;;;;;;;;;;;;20.54;52.34;99320.56;10330933;28;1951;-64
2023/07/22 15:01:55;;;;;;;;;;;;;;;20.50;52.33;99313.75;10330637;28;957;-65
2023/07/22 15:06:51;;;;;;;;;;;;;;;20.53;52.05;99309.09;10330638;28;843;-64
2023/07/22 15:11:46;;;;;;;;;;;;;;;20.57;51.96;99315.13;10331033;28;841;-65
2023/07/22 15:16:42;;;;;;;;;;;;;;;20.60;51.89;99299.03;10330826;28;1898;-64
2023/07/22 15:21:38;;;;;;;;;;;;;;;20.94;51.21;99296.91;10330650;28;874;-64
2023/07/22 15:26:34;;;;;;;;;;;;;;;21.04;51.12;99298.03;10329416;28;904;-64
2023/07/22 15:31:32;;;;;;;;;;;;;;;21.14;51.07;99291.19;10329711;28;1129;-65
2023/07/22 15:36:28;;;;;;;;;;;;;;;21.21;51.05;99291.63;10330066;28;1914;-65
2023/07/22 15:41:24;;;;;;;;;;;;;;;21.24;51.15;99284.31;10329996;28;858;-65
2023/07/22 15:46:20;;;;;;;;;;;;;;;21.25;51.19;99285.19;10329183;28;786;-65
2023/07/22 15:51:16;;;;;;;;;;;;;;;21.07;51.72;99273.13;10328966;28;886;-65
2023/07/22 15:56:12;;;;;;;;;;;;;;;21.05;51.69;99267.09;10327943;28;1951;-64
2023/07/22 16:01:09;;;;;;;;;;;;;;;21.07;51.79;99271.34;10328558;28;779;-65
2023/07/22 16:06:04;;;;;;;;;;;;;;;21.07;51.57;99263.38;10328385;28;870;-65
2023/07/22 16:11:00;;;;;;;;;;;;;;;20.99;51.73;99276.28;10328082;28;802;-65
2023/07/22 16:15:56;;;;;;;;;;;;;;;20.89;52.12;99272.50;10328956;28;1894;-65
2023/07/22 16:20:52;;;;;;;;;;;;;;;20.83;52.09;99270.22;10328404;28;988;-65
2023/07/22 16:25:48;;;;;;;;;;;;;;;20.78;52.28;99276.69;10327619;28;864;-65
2023/07/22 16:30:44;;;;;;;;;;;;;;;20.76;52.27;99265.34;10326993;28;1197;-65
2023/07/22 16:35:40;;;;;;;;;;;;;;;20.76;52.30;99273.28;10327005;28;1902;-65
2023/07/22 16:40:36;;;;;;;;;;;;;;;20.74;52.39;99267.22;10326997;28;913;-65
2023/07/22 16:45:32;;;;;;;;;;;;;;;20.73;52.47;99270.84;10327388;28;867;-65
2023/07/22 16:50:28;;;;;;;;;;;;;;;20.71;52.32;99277.16;10325372;28;881;-65
2023/07/22 16:55:24;;;;;;;;;;;;;;;20.68;52.46;99269.41;10326271;28;1894;-65
2023/07/22 17:00:20;;;;;;;;;;;;;;;20.67;52.51;99265.94;10326290;28;791;-63
2023/07/22 17:05:15;;;;;;;;;;;;;;;20.66;52.45;99271.31;10326107;28;879;-64
2023/07/22 17:10:11;;;;;;;;;;;;;;;20.64;52.72;99270.56;10325426;28;884;-65
2023/07/22 17:15:07;;;;;;;;;;;;;;;20.62;52.82;99268.00;10325874;28;1893;-65
2023/07/22 17:20:05;;;;;;;;;;;;;;;20.61;52.78;99268.94;10325906;28;811;-65
2023/07/22 17:25:00;;;;;;;;;;;;;;;20.59;52.91;99270.84;10326403;28;860;-65
2023/07/22 17:29:56;;;;;;;;;;;;;;;20.60;52.82;99267.25;10325385;28;1165;-65
2023/07/22 17:34:53;;;;;;;;;;;;;;;20.60;52.82;99264.59;10326135;28;936;-65
2023/07/22 17:39:48;;;;;;;;;;;;;;;20.61;52.85;99252.22;10325575;28;1923;-65
2023/07/22 17:44:44;;;;;;;;;;;;;;;20.60;53.06;99259.31;10325372;28;957;-65
2023/07/22 17:49:40;;;;;;;;;;;;;;;20.57;52.94;99247.13;10325206;28;939;-65
2023/07/22 17:54:36;;;;;;;;;;;;;;;20.55;53.01;99253.44;10325065;28;896;-65
2023/07/22 17:59:32;;;;;;;;;;;;;;;20.53;52.96;99250.84;10327108;28;2010;-65
2023/07/22 18:04:28;;;;;;;;;;;;;;;20.52;53.10;99250.97;10333091;28;964;-65
2023/07/22 18:09:24;;;;;;;;;;;;;;;20.51;53.23;99257.19;10332933;28;833;-65
2023/07/22 18:14:19;;;;;;;;;;;;;;;20.50;53.24;99253.69;10332716;28;802;-65
2023/07/22 18:19:15;;;;;;;;;;;;;;;20.49;53.27;99254.66;10332355;28;1965;-65
2023/07/22 18:24:11;;;;;;;;;;;;;;;20.47;53.22;99256.53;10333093;28;930;-64
2023/07/22 18:29:07;;;;;;;;;;;;;;;20.48;53.06;99265.34;10332100;28;782;-65
2023/07/22 18:34:03;;;;;;;;;;;;;;;20.46;53.18;99264.56;10332450;28;1156;-65
2023/07/22 18:38:59;;;;;;;;;;;;;;;20.45;53.28;99271.66;10332262;28;1909;-65
2023/07/22 18:43:55;;;;;;;;;;;;;;;20.44;53.09;99283.22;10331557;28;952;-65
2023/07/22 18:48:51;;;;;;;;;;;;;;;20.44;53.30;99269.97;10330788;28;834;-65
2023/07/22 18:53:46;;;;;;;;;;;;;;;20.46;53.17;99275.16;10331754;28;899;-65
2023/07/22 18:58:44;;;;;;;;;;;;;;;20.47;53.04;99271.59;10331102;28;1890;-66
2023/07/22 19:03:40;;;;;;;;;;;;;;;20.46;53.13;99272.50;10330833;28;974;-65
2023/07/22 19:08:36;;;;;;;;;;;;;;;20.44;53.09;99261.19;10330709;28;1101;-65
2023/07/22 19:13:32;;;;;;;;;;;;;;;20.44;53.30;99271.78;10329850;28;776;-65
2023/07/22 19:18:28;;;;;;;;;;;;;;;20.46;53.11;99269.88;10330231;28;1945;-65
2023/07/22 19:23:25;;;;;;;;;;;;;;;20.43;53.11;99283.28;10330465;28;1675;-65
2023/07/22 19:28:21;;;;;;;;;;;;;;;20.42;53.18;99285.09;10330558;28;831;-65
2023/07/22 19:33:17;;;;;;;;;;;;;;;20.42;53.11;99298.34;10329412;28;1216;-65
2023/07/22 19:38:13;;;;;;;;;;;;;;;20.42;53.16;99294.84;10330127;28;1967;-65
2023/07/22 19:43:09;;;;;;;;;;;;;;;20.42;53.11;99300.13;10329380;28;763;-65
2023/07/22 19:48:05;;;;;;;;;;;;;;;20.42;53.21;99286.91;10329717;28;871;-65
2023/07/22 19:53:01;;;;;;;;;;;;;;;20.40;53.27;99286.13;10329827;28;849;-65
2023/07/22 19:57:58;;;;;;;;;;;;;;;20.41;53.18;99293.13;10328087;28;1955;-65
2023/07/22 20:02:54;;;;;;;;;;;;;;;20.41;53.36;99293.13;10329106;28;887;-65
2023/07/22 20:07:52;;;;;;;;;;;;;;;20.40;53.25;99294.91;10329076;28;988;-65
2023/07/22 20:12:48;;;;;;;;;;;;;;;20.40;53.11;99292.28;10328078;28;838;-65
2023/07/22 20:17:44;;;;;;;;;;;;;;;20.40;53.35;99305.50;10328628;28;1894;-65
2023/07/22 20:22:41;;;;;;;;;;;;;;;20.39;53.23;99295.03;10326746;28;813;-65
2023/07/22 20:27:37;;;;;;;;;;;;;;;20.40;53.45;99307.31;10327451;28;879;-65
2023/07/22 20:32:33;;;;;;;;;;;;;;;20.39;53.18;99306.47;10327944;28;1124;-65
2023/07/22 20:37:29;;;;;;;;;;;;;;;20.39;53.21;99298.53;10327054;28;2036;-65
2023/07/22 20:42:25;;;;;;;;;;;;;;;20.38;53.37;99303.91;10326918;28;942;-65
2023/07/22 20:47:21;;;;;;;;;;;;;;;20.38;53.28;99304.75;10326098;28;1104;-65
2023/07/22 20:52:17;;;;;;;;;;;;;;;20.38;53.32;99303.91;10326607;28;890;-65
2023/07/22 20:57:16;;;;;;;;;;;;;;;20.38;53.26;99303.91;10326390;28;1902;-65
2023/07/22 21:02:11;;;;;;;;;;;;;;;20.37;53.35;99308.34;10325842;28;908;-65
2023/07/22 21:07:07;;;;;;;;;;;;;;;20.36;53.34;99307.50;10326800;28;867;-65
2023/07/22 21:12:03;;;;;;;;;;;;;;;20.36;53.35;99315.44;10326238;28;908;-65
2023/07/22 21:16:59;;;;;;;;;;;;;;;20.36;53.46;99315.44;10325941;28;1898;-65
2023/07/22 21:21:55;;;;;;;;;;;;;;;20.36;53.48;99318.09;10325811;28;940;-63
2023/07/22 21:26:51;;;;;;;;;;;;;;;20.39;53.39;99305.63;10326046;28;843;-66
2023/07/22 21:31:47;;;;;;;;;;;;;;;20.40;53.52;99312.59;10325361;28;1284;-63
2023/07/22 21:36:43;;;;;;;;;;;;;;;20.37;53.27;99313.63;10325744;28;1906;-63
2023/07/22 21:41:39;;;;;;;;;;;;;;;20.39;53.38;99308.28;10325389;28;837;-64
2023/07/22 21:46:35;;;;;;;;;;;;;;;20.39;53.28;99305.63;10325897;28;838;-64
2023/07/22 21:51:31;;;;;;;;;;;;;;;20.38;53.47;99299.44;10326190;28;911;-64
2023/07/22 21:56:27;;;;;;;;;;;;;;;20.39;53.38;99297.69;10324951;28;1953;-64
2023/07/22 22:01:23;;;;;;;;;;;;;;;20.38;53.46;99301.25;10324939;28;934;-64
2023/07/22 22:06:20;;;;;;;;;;;;;;;20.37;53.40;99295.13;10324269;28;1054;-64
2023/07/22 22:11:16;;;;;;;;;;;;;;;20.38;53.47;99285.38;10324742;28;953;-64
2023/07/22 22:16:12;;;;;;;;;;;;;;;20.36;53.40;99288.97;10325324;28;1905;-64
2023/07/22 22:21:08;;;;;;;;;;;;;;;20.36;53.46;99283.69;10324082;28;904;-64
2023/07/22 22:26:04;;;;;;;;;;;;;;;20.36;53.49;99286.31;10324452;28;954;-64
2023/07/22 22:31:00;;;;;;;;;;;;;;;20.36;53.48;99275.75;10324898;28;1287;-64
2023/07/22 22:35:56;;;;;;;;;;;;;;;20.35;53.50;99268.72;10324196;28;1914;-64
2023/07/22 22:40:52;;;;;;;;;;;;;;;20.35;53.52;99271.38;10323748;28;837;-64
2023/07/22 22:45:48;;;;;;;;;;;;;;;20.36;53.48;99273.09;10325781;28;794;-64
2023/07/22 22:50:44;;;;;;;;;;;;;;;20.35;53.49;99259.94;10330799;28;842;-64
2023/07/22 22:55:40;;;;;;;;;;;;;;;20.34;53.62;99259.09;10331485;28;1957;-64
2023/07/22 23:00:36;;;;;;;;;;;;;;;20.35;53.59;99254.66;10331679;28;817;-64
2023/07/22 23:05:32;;;;;;;;;;;;;;;20.34;53.57;99250.31;10330825;28;758;-65
2023/07/22 23:10:27;;;;;;;;;;;;;;;20.34;53.67;99248.50;10331008;28;896;-64
2023/07/22 23:15:23;;;;;;;;;;;;;;;20.34;53.67;99243.22;10331019;28;1965;-64
2023/07/22 23:20:19;;;;;;;;;;;;;;;20.33;53.74;99244.16;10329684;28;991;-64
2023/07/22 23:25:15;;;;;;;;;;;;;;;20.33;53.57;99245.94;10329675;28;839;-64
2023/07/22 23:30:11;;;;;;;;;;;;;;;20.33;53.57;99249.47;10329849;28;1318;-64
2023/07/22 23:35:08;;;;;;;;;;;;;;;20.35;53.70;99230.81;10329996;28;956;-64
2023/07/22 23:40:07;;;;;;;;;;;;;;;20.32;53.65;99234.50;10329417;28;2080;-64
2023/07/22 23:45:03;;;;;;;;;;;;;;;20.32;53.78;99226.56;10329261;28;1597;-64
2023/07/22 23:50:00;;;;;;;;;;;;;;;20.32;53.54;99213.34;10329103;28;974;-64
2023/07/22 23:54:55;;;;;;;;;;;;;;;20.33;53.77;99216.81;10328858;28;837;-64
2023/07/22 23:59:51;;;;;;;;;;;;;;;20.32;53.79;99210.69;10329359;28;1899;-64
